sensor_id;sensor_type;location;lat;lon;timestamp;pressure;altitude;pressure_sealevel;temperature;humidity
63343;BME280;49465;57.664;39.686;2022-09-25T00:01:25;98982.13;;;11.10;67.11
63343;BME280;49465;57.664;39.686;2022-09-25T00:03:52;98980.19;;;11.12;66.95
63343;BME280;49465;57.664;39.686;2022-09-25T00:06:26;98985.16;;;11.15;67.07
63343;BME280;49465;57.664;39.686;2022-09-25T00:08:53;98985.44;;;11.12;67.19
63343;BME280;49465;57.664;39.686;2022-09-25T00:11:23;98994.00;;;11.14;66.63
63343;BME280;49465;57.664;39.686;2022-09-25T00:13:53;98994.38;;;11.09;67.38
63343;BME280;49465;57.664;39.686;2022-09-25T00:16:22;99001.19;;;11.12;67.28
63343;BME280;49465;57.664;39.686;2022-09-25T00:18:50;98996.19;;;11.08;67.48
63343;BME280;49465;57.664;39.686;2022-09-25T00:21:36;99000.50;;;11.10;67.23
63343;BME280;49465;57.664;39.686;2022-09-25T00:24:06;98991.38;;;11.14;66.61
63343;BME280;49465;57.664;39.686;2022-09-25T00:26:34;99007.38;;;11.11;66.81
63343;BME280;49465;57.664;39.686;2022-09-25T00:29:02;98993.44;;;11.10;67.14
63343;BME280;49465;57.664;39.686;2022-09-25T00:31:28;99001.88;;;11.14;67.03
63343;BME280;49465;57.664;39.686;2022-09-25T00:34:00;99010.16;;;11.19;67.18
63343;BME280;49465;57.664;39.686;2022-09-25T00:36:27;99006.69;;;11.08;66.79
63343;BME280;49465;57.664;39.686;2022-09-25T00:38:53;98998.81;;;11.08;67.50
63343;BME280;49465;57.664;39.686;2022-09-25T00:41:22;98998.69;;;11.10;67.22
63343;BME280;49465;57.664;39.686;2022-09-25T00:43:55;99004.75;;;11.11;67.34
63343;BME280;49465;57.664;39.686;2022-09-25T00:46:37;99005.34;;;11.24;67.61
63343;BME280;49465;57.664;39.686;2022-09-25T00:49:13;98996.91;;;11.20;66.97
63343;BME280;49465;57.664;39.686;2022-09-25T00:51:44;98998.13;;;11.06;66.99
63343;BME280;49465;57.664;39.686;2022-09-25T00:54:26;99008.66;;;11.26;67.35
63343;BME280;49465;57.664;39.686;2022-09-25T00:57:03;99007.50;;;11.09;67.26
63343;BME280;49465;57.664;39.686;2022-09-25T00:59:37;99014.72;;;11.17;67.56
63343;BME280;49465;57.664;39.686;2022-09-25T01:02:06;99010.53;;;11.04;67.26
63343;BME280;49465;57.664;39.686;2022-09-25T01:04:44;99012.91;;;11.07;67.27
63343;BME280;49465;57.664;39.686;2022-09-25T01:07:12;99009.84;;;11.02;67.76
63343;BME280;49465;57.664;39.686;2022-09-25T01:09:39;99016.03;;;11.01;67.26
63343;BME280;49465;57.664;39.686;2022-09-25T01:12:06;99013.41;;;11.01;67.38
63343;BME280;49465;57.664;39.686;2022-09-25T01:14:43;99006.41;;;11.02;67.26
63343;BME280;49465;57.664;39.686;2022-09-25T01:17:31;99016.50;;;11.16;67.19
63343;BME280;49465;57.664;39.686;2022-09-25T01:20:27;99017.78;;;11.22;67.39
63343;BME280;49465;57.664;39.686;2022-09-25T01:23:29;99017.81;;;11.32;66.95
63343;BME280;49465;57.664;39.686;2022-09-25T01:29:24;99015.03;;;11.23;67.14
63343;BME280;49465;57.664;39.686;2022-09-25T01:32:02;99018.47;;;11.24;67.16
63343;BME280;49465;57.664;39.686;2022-09-25T01:37:45;99022.22;;;11.31;66.79
63343;BME280;49465;57.664;39.686;2022-09-25T01:45:55;99015.31;;;11.30;66.57
63343;BME280;49465;57.664;39.686;2022-09-25T01:48:27;99021.47;;;11.10;67.75
63343;BME280;49465;57.664;39.686;2022-09-25T01:51:02;99028.94;;;11.14;67.63
63343;BME280;49465;57.664;39.686;2022-09-25T01:53:38;99025.50;;;11.14;67.64
63343;BME280;49465;57.664;39.686;2022-09-25T01:56:37;99032.03;;;11.29;67.17
63343;BME280;49465;57.664;39.686;2022-09-25T01:59:16;99029.88;;;11.13;67.77
63343;BME280;49465;57.664;39.686;2022-09-25T02:01:44;99035.09;;;11.03;67.76
63343;BME280;49465;57.664;39.686;2022-09-25T02:04:27;99039.03;;;11.19;67.84
63343;BME280;49465;57.664;39.686;2022-09-25T02:06:59;99034.03;;;11.06;67.71
63343;BME280;49465;57.664;39.686;2022-09-25T02:09:31;99028.44;;;10.99;67.75
63343;BME280;49465;57.664;39.686;2022-09-25T02:12:05;99034.03;;;11.06;68.35
63343;BME280;49465;57.664;39.686;2022-09-25T02:14:37;99039.38;;;11.04;68.13
63343;BME280;49465;57.664;39.686;2022-09-25T02:17:08;99034.84;;;11.06;68.08
63343;BME280;49465;57.664;39.686;2022-09-25T02:19:38;99033.00;;;10.97;68.17
63343;BME280;49465;57.664;39.686;2022-09-25T02:22:28;99037.59;;;11.05;67.71
63343;BME280;49465;57.664;39.686;2022-09-25T02:25:24;99037.63;;;11.15;68.02
63343;BME280;49465;57.664;39.686;2022-09-25T02:28:10;99035.63;;;10.97;67.38
63343;BME280;49465;57.664;39.686;2022-09-25T02:30:39;99037.53;;;10.95;68.10
63343;BME280;49465;57.664;39.686;2022-09-25T02:33:07;99037.53;;;10.95;68.23
63343;BME280;49465;57.664;39.686;2022-09-25T02:35:34;99030.91;;;10.91;67.59
63343;BME280;49465;57.664;39.686;2022-09-25T02:38:00;99037.81;;;10.92;68.21
63343;BME280;49465;57.664;39.686;2022-09-25T02:51:44;99054.78;;;11.28;67.48
63343;BME280;49465;57.664;39.686;2022-09-25T02:54:13;99057.47;;;10.98;67.76
63343;BME280;49465;57.664;39.686;2022-09-25T02:56:48;99058.44;;;11.06;68.10
63343;BME280;49465;57.664;39.686;2022-09-25T02:59:22;99058.69;;;11.03;68.50
63343;BME280;49465;57.664;39.686;2022-09-25T03:01:51;99065.16;;;10.99;68.33
63343;BME280;49465;57.664;39.686;2022-09-25T03:04:18;99068.78;;;10.98;68.42
63343;BME280;49465;57.664;39.686;2022-09-25T03:06:45;99070.69;;;10.96;68.38
63343;BME280;49465;57.664;39.686;2022-09-25T03:09:13;99060.91;;;10.98;68.29
63343;BME280;49465;57.664;39.686;2022-09-25T03:11:45;99067.72;;;11.11;68.20
63343;BME280;49465;57.664;39.686;2022-09-25T03:14:12;99068.78;;;10.98;68.26
63343;BME280;49465;57.664;39.686;2022-09-25T03:17:03;99061.41;;;11.23;67.86
63343;BME280;49465;57.664;39.686;2022-09-25T03:19:31;99061.59;;;11.00;68.17
63343;BME280;49465;57.664;39.686;2022-09-25T03:21:58;99066.16;;;10.98;68.01
63343;BME280;49465;57.664;39.686;2022-09-25T03:24:25;99070.41;;;10.99;67.93
63343;BME280;49465;57.664;39.686;2022-09-25T03:26:52;99071.41;;;10.98;68.10
63343;BME280;49465;57.664;39.686;2022-09-25T03:29:21;99080.78;;;11.01;67.66
63343;BME280;49465;57.664;39.686;2022-09-25T03:31:48;99084.50;;;10.98;67.75
63343;BME280;49465;57.664;39.686;2022-09-25T03:34:16;99088.53;;;11.02;67.73
63343;BME280;49465;57.664;39.686;2022-09-25T03:36:45;99087.00;;;11.00;68.03
63343;BME280;49465;57.664;39.686;2022-09-25T03:39:13;99087.81;;;11.00;67.90
63343;BME280;49465;57.664;39.686;2022-09-25T03:41:44;99096.53;;;11.01;67.77
63343;BME280;49465;57.664;39.686;2022-09-25T03:44:14;99092.09;;;11.01;67.88
63343;BME280;49465;57.664;39.686;2022-09-25T03:46:42;99093.66;;;11.04;67.65
63343;BME280;49465;57.664;39.686;2022-09-25T03:49:09;99096.41;;;11.02;67.38
63343;BME280;49465;57.664;39.686;2022-09-25T03:51:58;99109.16;;;11.17;67.58
63343;BME280;49465;57.664;39.686;2022-09-25T03:54:36;99119.66;;;11.17;67.86
63343;BME280;49465;57.664;39.686;2022-09-25T03:57:16;99120.75;;;11.14;67.58
63343;BME280;49465;57.664;39.686;2022-09-25T03:59:59;99127.63;;;11.15;66.78
63343;BME280;49465;57.664;39.686;2022-09-25T04:08:19;99131.44;;;11.01;66.06
63343;BME280;49465;57.664;39.686;2022-09-25T04:11:04;99147.44;;;11.19;64.70
63343;BME280;49465;57.664;39.686;2022-09-25T04:13:52;99150.31;;;11.16;65.22
63343;BME280;49465;57.664;39.686;2022-09-25T04:16:24;99151.13;;;11.17;64.59
63343;BME280;49465;57.664;39.686;2022-09-25T04:19:15;99148.13;;;11.21;64.99
63343;BME280;49465;57.664;39.686;2022-09-25T04:21:55;99155.84;;;11.23;64.70
63343;BME280;49465;57.664;39.686;2022-09-25T04:24:28;99156.13;;;11.20;65.28
63343;BME280;49465;57.664;39.686;2022-09-25T04:27:21;99147.03;;;11.24;64.33
63343;BME280;49465;57.664;39.686;2022-09-25T04:29:53;99148.84;;;11.23;64.51
63343;BME280;49465;57.664;39.686;2022-09-25T04:32:38;99146.50;;;11.30;64.56
63343;BME280;49465;57.664;39.686;2022-09-25T04:35:42;99149.75;;;11.43;64.52
63343;BME280;49465;57.664;39.686;2022-09-25T04:38:22;99149.13;;;11.30;64.62
63343;BME280;49465;57.664;39.686;2022-09-25T04:40:54;99141.13;;;11.32;64.20
63343;BME280;49465;57.664;39.686;2022-09-25T04:43:38;99143.56;;;11.54;64.32
63343;BME280;49465;57.664;39.686;2022-09-25T04:49:16;99150.16;;;11.48;64.36
63343;BME280;49465;57.664;39.686;2022-09-25T04:52:01;99155.97;;;11.52;64.70
63343;BME280;49465;57.664;39.686;2022-09-25T04:54:39;99145.50;;;11.62;65.03
63343;BME280;49465;57.664;39.686;2022-09-25T04:57:14;99152.69;;;11.60;64.81
63343;BME280;49465;57.664;39.686;2022-09-25T04:59:45;99143.81;;;11.41;64.62
63343;BME280;49465;57.664;39.686;2022-09-25T05:02:37;99149.38;;;11.58;64.95
63343;BME280;49465;57.664;39.686;2022-09-25T05:05:08;99158.94;;;11.59;64.94
63343;BME280;49465;57.664;39.686;2022-09-25T05:07:59;99147.44;;;11.60;65.45
63343;BME280;49465;57.664;39.686;2022-09-25T05:10:43;99151.91;;;11.69;65.11
63343;BME280;49465;57.664;39.686;2022-09-25T05:13:14;99146.19;;;11.54;65.48
63343;BME280;49465;57.664;39.686;2022-09-25T05:15:54;99155.25;;;11.81;65.25
63343;BME280;49465;57.664;39.686;2022-09-25T05:18:35;99152.69;;;11.60;65.64
63343;BME280;49465;57.664;39.686;2022-09-25T05:21:15;99157.28;;;11.67;65.72
63343;BME280;49465;57.664;39.686;2022-09-25T05:26:37;99159.94;;;11.77;65.92
63343;BME280;49465;57.664;39.686;2022-09-25T05:29:08;99159.81;;;11.79;65.56
63343;BME280;49465;57.664;39.686;2022-09-25T05:31:50;99165.00;;;11.90;65.81
63343;BME280;49465;57.664;39.686;2022-09-25T05:34:26;99160.47;;;11.71;65.69
63343;BME280;49465;57.664;39.686;2022-09-25T05:36:52;99158.97;;;11.68;65.76
63343;BME280;49465;57.664;39.686;2022-09-25T05:39:25;99160.59;;;11.70;66.02
63343;BME280;49465;57.664;39.686;2022-09-25T05:41:57;99164.66;;;11.83;65.77
63343;BME280;49465;57.664;39.686;2022-09-25T05:44:26;99164.25;;;11.78;65.98
63343;BME280;49465;57.664;39.686;2022-09-25T05:46:58;99164.66;;;11.83;65.97
63343;BME280;49465;57.664;39.686;2022-09-25T05:49:54;99161.31;;;11.72;65.95
63343;BME280;49465;57.664;39.686;2022-09-25T05:52:20;99163.22;;;11.70;66.76
63343;BME280;49465;57.664;39.686;2022-09-25T05:54:55;99159.91;;;11.67;66.53
63343;BME280;49465;57.664;39.686;2022-09-25T05:57:26;99164.06;;;11.70;66.99
63343;BME280;49465;57.664;39.686;2022-09-25T05:59:58;99176.41;;;11.79;66.80
63343;BME280;49465;57.664;39.686;2022-09-25T06:02:27;99173.06;;;11.77;66.84
63343;BME280;49465;57.664;39.686;2022-09-25T06:04:59;99178.31;;;11.77;66.80
63343;BME280;49465;57.664;39.686;2022-09-25T06:07:25;99179.81;;;11.70;66.73
63343;BME280;49465;57.664;39.686;2022-09-25T06:10:09;99184.84;;;11.83;66.65
63343;BME280;49465;57.664;39.686;2022-09-25T06:12:41;99192.84;;;11.81;66.50
63343;BME280;49465;57.664;39.686;2022-09-25T06:15:18;99199.50;;;11.85;66.48
63343;BME280;49465;57.664;39.686;2022-09-25T06:17:45;99197.13;;;11.73;66.44
63343;BME280;49465;57.664;39.686;2022-09-25T06:20:15;99197.69;;;11.76;66.49
63343;BME280;49465;57.664;39.686;2022-09-25T06:23:23;99200.03;;;12.10;65.62
63343;BME280;49465;57.664;39.686;2022-09-25T06:26:27;99201.50;;;12.03;65.81
63343;BME280;49465;57.664;39.686;2022-09-25T06:29:15;99204.25;;;12.01;65.83
63343;BME280;49465;57.664;39.686;2022-09-25T06:31:52;99206.63;;;11.95;65.83
63343;BME280;49465;57.664;39.686;2022-09-25T06:34:24;99199.28;;;11.98;65.93
63343;BME280;49465;57.664;39.686;2022-09-25T06:37:04;99204.00;;;12.04;65.99
63343;BME280;49465;57.664;39.686;2022-09-25T06:39:43;99216.19;;;12.05;65.21
63343;BME280;49465;57.664;39.686;2022-09-25T06:42:30;99211.38;;;12.20;65.33
63343;BME280;49465;57.664;39.686;2022-09-25T06:45:19;99213.84;;;12.12;65.31
63343;BME280;49465;57.664;39.686;2022-09-25T06:48:12;99218.84;;;12.15;65.28
63343;BME280;49465;57.664;39.686;2022-09-25T06:51:05;99222.88;;;12.19;64.75
63343;BME280;49465;57.664;39.686;2022-09-25T06:53:51;99233.25;;;12.31;64.84
63343;BME280;49465;57.664;39.686;2022-09-25T06:56:22;99228.63;;;12.13;64.66
63343;BME280;49465;57.664;39.686;2022-09-25T06:59:04;99238.50;;;12.40;64.43
63343;BME280;49465;57.664;39.686;2022-09-25T07:01:44;99237.22;;;12.25;64.19
63343;BME280;49465;57.664;39.686;2022-09-25T07:04:35;99247.94;;;12.43;64.49
63343;BME280;49465;57.664;39.686;2022-09-25T07:07:19;99252.63;;;12.30;63.94
63343;BME280;49465;57.664;39.686;2022-09-25T07:10:01;99248.63;;;12.45;64.08
63343;BME280;49465;57.664;39.686;2022-09-25T07:12:50;99251.25;;;12.35;63.99
63343;BME280;49465;57.664;39.686;2022-09-25T07:15:34;99257.91;;;12.49;63.72
63343;BME280;49465;57.664;39.686;2022-09-25T07:18:06;99259.41;;;12.42;64.21
63343;BME280;49465;57.664;39.686;2022-09-25T07:20:50;99265.94;;;12.48;63.55
63343;BME280;49465;57.664;39.686;2022-09-25T07:23:31;99273.28;;;12.54;63.83
63343;BME280;49465;57.664;39.686;2022-09-25T07:26:20;99271.22;;;12.57;63.34
63343;BME280;49465;57.664;39.686;2022-09-25T07:29:11;99269.97;;;12.61;62.91
63343;BME280;49465;57.664;39.686;2022-09-25T07:31:56;99280.47;;;12.61;62.46
63343;BME280;49465;57.664;39.686;2022-09-25T07:34:43;99277.16;;;12.59;63.29
63343;BME280;49465;57.664;39.686;2022-09-25T07:40:18;99280.91;;;12.66;63.05
63343;BME280;49465;57.664;39.686;2022-09-25T07:43:04;99285.47;;;12.55;61.81
63343;BME280;49465;57.664;39.686;2022-09-25T07:45:43;99282.53;;;12.48;62.83
63343;BME280;49465;57.664;39.686;2022-09-25T07:48:22;99286.72;;;12.51;62.55
63343;BME280;49465;57.664;39.686;2022-09-25T07:53:55;99288.63;;;12.58;62.66
63343;BME280;49465;57.664;39.686;2022-09-25T07:56:37;99294.84;;;12.48;62.14
63343;BME280;49465;57.664;39.686;2022-09-25T07:59:41;99295.44;;;12.71;62.35
63343;BME280;49465;57.664;39.686;2022-09-25T08:02:27;99292.13;;;12.59;62.25
63343;BME280;49465;57.664;39.686;2022-09-25T08:08:02;99299.88;;;12.60;62.03
63343;BME280;49465;57.664;39.686;2022-09-25T08:10:55;99299.88;;;12.60;61.38
63343;BME280;49465;57.664;39.686;2022-09-25T08:13:49;99304.56;;;12.57;61.94
63343;BME280;49465;57.664;39.686;2022-09-25T08:16:39;99297.66;;;12.65;62.37
63343;BME280;49465;57.664;39.686;2022-09-25T08:19:10;99301.91;;;12.47;62.35
63343;BME280;49465;57.664;39.686;2022-09-25T08:22:00;99297.25;;;12.60;61.64
63343;BME280;49465;57.664;39.686;2022-09-25T08:24:40;99303.47;;;12.69;62.21
63343;BME280;49465;57.664;39.686;2022-09-25T08:30:01;99297.66;;;12.75;61.51
63343;BME280;49465;57.664;39.686;2022-09-25T08:32:54;99298.22;;;12.89;61.42
63343;BME280;49465;57.664;39.686;2022-09-25T08:35:28;99300.03;;;13.27;61.16
63343;BME280;49465;57.664;39.686;2022-09-25T08:38:14;99297.94;;;13.01;61.78
63343;BME280;49465;57.664;39.686;2022-09-25T08:47:20;99303.78;;;13.34;61.33
63343;BME280;49465;57.664;39.686;2022-09-25T08:50:32;99298.50;;;13.44;61.02
63343;BME280;49465;57.664;39.686;2022-09-25T08:53:54;99306.38;;;13.54;60.59
63343;BME280;49465;57.664;39.686;2022-09-25T08:56:37;99309.16;;;13.42;59.93
63343;BME280;49465;57.664;39.686;2022-09-25T09:05:33;99307.34;;;13.72;59.96
63343;BME280;49465;57.664;39.686;2022-09-25T09:08:22;99309.38;;;13.78;59.21
63343;BME280;49465;57.664;39.686;2022-09-25T09:11:25;99305.34;;;13.84;59.37
63343;BME280;49465;57.664;39.686;2022-09-25T09:14:20;99307.97;;;13.94;59.22
63343;BME280;49465;57.664;39.686;2022-09-25T09:17:42;99309.31;;;13.98;57.76
63343;BME280;49465;57.664;39.686;2022-09-25T09:20:51;99307.66;;;13.97;59.68
63343;BME280;49465;57.664;39.686;2022-09-25T09:23:55;99313.72;;;14.07;59.14
63343;BME280;49465;57.664;39.686;2022-09-25T09:29:52;99312.94;;;14.24;58.70
63343;BME280;49465;57.664;39.686;2022-09-25T09:32:51;99308.47;;;14.35;58.49
63343;BME280;49465;57.664;39.686;2022-09-25T09:41:49;99311.97;;;14.53;57.78
63343;BME280;49465;57.664;39.686;2022-09-25T09:47:56;99307.13;;;14.58;58.00
63343;BME280;49465;57.664;39.686;2022-09-25T09:50:48;99306.81;;;14.61;56.64
63343;BME280;49465;57.664;39.686;2022-09-25T09:53:43;99309.16;;;14.65;57.35
63343;BME280;49465;57.664;39.686;2022-09-25T09:56:34;99321.06;;;14.69;56.61
63343;BME280;49465;57.664;39.686;2022-09-25T09:59:36;99312.97;;;14.80;56.75
63343;BME280;49465;57.664;39.686;2022-09-25T10:02:32;99309.53;;;14.88;56.97
63343;BME280;49465;57.664;39.686;2022-09-25T10:08:02;99307.97;;;14.77;55.59
63343;BME280;49465;57.664;39.686;2022-09-25T10:10:57;99303.97;;;14.91;54.49
63343;BME280;49465;57.664;39.686;2022-09-25T10:13:52;99307.75;;;14.88;55.55
63343;BME280;49465;57.664;39.686;2022-09-25T10:16:35;99308.66;;;14.97;54.74
63343;BME280;49465;57.664;39.686;2022-09-25T10:19:47;99316.94;;;15.20;56.05
63343;BME280;49465;57.664;39.686;2022-09-25T10:22:36;99311.50;;;15.21;55.25
63343;BME280;49465;57.664;39.686;2022-09-25T10:25:08;99305.09;;;15.24;55.23
63343;BME280;49465;57.664;39.686;2022-09-25T10:28:39;99304.84;;;15.35;54.49
63343;BME280;49465;57.664;39.686;2022-09-25T10:31:13;99307.03;;;15.40;54.32
63343;BME280;49465;57.664;39.686;2022-09-25T10:36:54;99307.56;;;15.43;54.34
63343;BME280;49465;57.664;39.686;2022-09-25T10:40:20;99303.09;;;15.44;52.07
63343;BME280;49465;57.664;39.686;2022-09-25T10:42:40;99301.50;;;15.51;54.36
63343;BME280;49465;57.664;39.686;2022-09-25T10:46:03;99305.75;;;15.70;53.84
63343;BME280;49465;57.664;39.686;2022-09-25T10:48:50;99316.03;;;15.73;53.80
63343;BME280;49465;57.664;39.686;2022-09-25T10:52:28;99311.88;;;15.97;54.65
63343;BME280;49465;57.664;39.686;2022-09-25T10:58:58;99305.34;;;16.09;51.63
63343;BME280;49465;57.664;39.686;2022-09-25T11:01:52;99307.53;;;16.22;51.96
63343;BME280;49465;57.664;39.686;2022-09-25T11:04:43;99306.59;;;16.31;51.25
63343;BME280;49465;57.664;39.686;2022-09-25T11:07:33;99300.59;;;16.21;52.12
63343;BME280;49465;57.664;39.686;2022-09-25T11:11:01;99301.88;;;16.59;53.07
63343;BME280;49465;57.664;39.686;2022-09-25T11:13:50;99311.78;;;16.49;51.78
63343;BME280;49465;57.664;39.686;2022-09-25T11:19:38;99306.47;;;16.49;50.78
63343;BME280;49465;57.664;39.686;2022-09-25T11:22:35;99304.38;;;16.61;52.07
63343;BME280;49465;57.664;39.686;2022-09-25T11:25:33;99306.53;;;16.66;51.81
63343;BME280;49465;57.664;39.686;2022-09-25T11:28:29;99316.13;;;16.67;52.12
63343;BME280;49465;57.664;39.686;2022-09-25T11:31:25;99312.31;;;16.69;50.39
63343;BME280;49465;57.664;39.686;2022-09-25T11:43:20;99309.25;;;16.90;52.28
63343;BME280;49465;57.664;39.686;2022-09-25T11:46:00;99323.00;;;17.02;50.39
63343;BME280;49465;57.664;39.686;2022-09-25T11:55:22;99328.31;;;17.18;52.15
63343;BME280;49465;57.664;39.686;2022-09-25T11:58:40;99323.34;;;17.15;52.07
63343;BME280;49465;57.664;39.686;2022-09-25T12:01:50;99329.47;;;17.16;52.31
63343;BME280;49465;57.664;39.686;2022-09-25T12:11:09;99330.13;;;17.18;52.31
63343;BME280;49465;57.664;39.686;2022-09-25T12:20:24;99338.69;;;16.95;51.85
63343;BME280;49465;57.664;39.686;2022-09-25T12:29:48;99338.69;;;16.95;52.57
63343;BME280;49465;57.664;39.686;2022-09-25T12:35:45;99338.66;;;16.79;52.39
63343;BME280;49465;57.664;39.686;2022-09-25T12:38:46;99343.47;;;16.84;52.32
63343;BME280;49465;57.664;39.686;2022-09-25T12:42:08;99336.72;;;16.89;52.47
63343;BME280;49465;57.664;39.686;2022-09-25T12:45:13;99337.06;;;16.86;52.60
63343;BME280;49465;57.664;39.686;2022-09-25T12:51:18;99336.94;;;16.61;52.33
63343;BME280;49465;57.664;39.686;2022-09-25T12:54:18;99338.28;;;16.66;52.50
63343;BME280;49465;57.664;39.686;2022-09-25T13:01:09;99349.84;;;16.56;52.18
63343;BME280;49465;57.664;39.686;2022-09-25T13:09:46;99349.63;;;16.50;52.54
63343;BME280;49465;57.664;39.686;2022-09-25T13:12:39;99348.16;;;16.47;53.18
63343;BME280;49465;57.664;39.686;2022-09-25T13:15:28;99350.09;;;16.37;53.29
63343;BME280;49465;57.664;39.686;2022-09-25T13:17:58;99354.47;;;16.20;52.74
63343;BME280;49465;57.664;39.686;2022-09-25T13:23:38;99355.72;;;16.42;53.33
63343;BME280;49465;57.664;39.686;2022-09-25T13:26:25;99362.09;;;16.23;53.20
63343;BME280;49465;57.664;39.686;2022-09-25T13:32:30;99362.44;;;16.28;53.67
63343;BME280;49465;57.664;39.686;2022-09-25T13:35:43;99366.47;;;16.06;53.14
63343;BME280;49465;57.664;39.686;2022-09-25T13:39:37;99364.75;;;16.23;53.42
63343;BME280;49465;57.664;39.686;2022-09-25T13:42:19;99363.56;;;16.17;53.33
63343;BME280;49465;57.664;39.686;2022-09-25T13:48:48;99365.69;;;16.14;53.54
63343;BME280;49465;57.664;39.686;2022-09-25T14:00:52;99367.38;;;15.97;53.70
63343;BME280;49465;57.664;39.686;2022-09-25T14:03:57;99363.09;;;15.96;54.04
63343;BME280;49465;57.664;39.686;2022-09-25T14:07:20;99367.97;;;15.82;54.34
63343;BME280;49465;57.664;39.686;2022-09-25T14:09:53;99371.59;;;15.81;54.64
63343;BME280;49465;57.664;39.686;2022-09-25T14:12:57;99360.72;;;15.85;54.18
63343;BME280;49465;57.664;39.686;2022-09-25T14:16:06;99367.28;;;15.80;54.48
63343;BME280;49465;57.664;39.686;2022-09-25T14:22:03;99373.28;;;15.65;55.04
63343;BME280;49465;57.664;39.686;2022-09-25T14:24:59;99380.03;;;15.67;55.09
63343;BME280;49465;57.664;39.686;2022-09-25T14:28:44;99376.72;;;15.65;55.14
63343;BME280;49465;57.664;39.686;2022-09-25T14:40:19;99376.00;;;15.55;56.05
63343;BME280;49465;57.664;39.686;2022-09-25T14:49:30;99381.50;;;15.43;56.65
63343;BME280;49465;57.664;39.686;2022-09-25T14:52:28;99384.69;;;15.47;56.24
63343;BME280;49465;57.664;39.686;2022-09-25T14:55:02;99381.72;;;15.32;56.11
63343;BME280;49465;57.664;39.686;2022-09-25T14:57:44;99393.28;;;15.31;56.02
63343;BME280;49465;57.664;39.686;2022-09-25T15:03:40;99381.38;;;15.27;56.20
63343;BME280;49465;57.664;39.686;2022-09-25T15:06:37;99396.00;;;15.39;55.97
63343;BME280;49465;57.664;39.686;2022-09-25T15:12:32;99401.16;;;15.23;57.09
63343;BME280;49465;57.664;39.686;2022-09-25T15:15:23;99400.44;;;15.21;57.25
63343;BME280;49465;57.664;39.686;2022-09-25T15:18:11;99399.06;;;15.17;57.78
63343;BME280;49465;57.664;39.686;2022-09-25T15:20:52;99405.13;;;14.81;59.03
63343;BME280;49465;57.664;39.686;2022-09-25T15:23:34;99415.03;;;14.97;58.67
63343;BME280;49465;57.664;39.686;2022-09-25T15:26:25;99412.28;;;14.71;59.79
63343;BME280;49465;57.664;39.686;2022-09-25T15:29:15;99413.69;;;14.93;58.87
63343;BME280;49465;57.664;39.686;2022-09-25T15:32:02;99409.13;;;14.86;59.35
63343;BME280;49465;57.664;39.686;2022-09-25T15:34:48;99410.59;;;14.80;59.75
63343;BME280;49465;57.664;39.686;2022-09-25T15:37:31;99411.06;;;14.66;60.51
63343;BME280;49465;57.664;39.686;2022-09-25T15:40:22;99409.91;;;14.78;59.53
63343;BME280;49465;57.664;39.686;2022-09-25T15:42:56;99404.88;;;14.57;60.47
63343;BME280;49465;57.664;39.686;2022-09-25T15:49:46;99410.78;;;14.69;59.66
63343;BME280;49465;57.664;39.686;2022-09-25T15:55:08;99419.69;;;14.48;60.04
63343;BME280;49465;57.664;39.686;2022-09-25T15:57:48;99410.88;;;14.77;58.19
63343;BME280;49465;57.664;39.686;2022-09-25T16:01:02;99403.88;;;14.48;58.91
63343;BME280;49465;57.664;39.686;2022-09-25T16:03:53;99419.38;;;14.23;58.97
63343;BME280;49465;57.664;39.686;2022-09-25T16:06:53;99424.25;;;14.18;58.87
63343;BME280;49465;57.664;39.686;2022-09-25T16:12:41;99422.59;;;14.17;58.83
63343;BME280;49465;57.664;39.686;2022-09-25T16:18:58;99409.44;;;14.08;59.01
63343;BME280;49465;57.664;39.686;2022-09-25T16:21:59;99416.25;;;14.00;59.44
63343;BME280;49465;57.664;39.686;2022-09-25T16:24:58;99416.69;;;13.96;59.50
63343;BME280;49465;57.664;39.686;2022-09-25T16:27:44;99416.28;;;13.91;59.96
63343;BME280;49465;57.664;39.686;2022-09-25T16:30:34;99412.94;;;13.89;59.87
63343;BME280;49465;57.664;39.686;2022-09-25T16:33:39;99421.41;;;13.82;60.19
63343;BME280;49465;57.664;39.686;2022-09-25T16:36:41;99417.13;;;13.72;60.67
63343;BME280;49465;57.664;39.686;2022-09-25T16:39:37;99417.66;;;13.75;59.95
63343;BME280;49465;57.664;39.686;2022-09-25T16:42:33;99421.56;;;13.71;59.81
63343;BME280;49465;57.664;39.686;2022-09-25T16:45:58;99417.28;;;13.70;59.88
63343;BME280;49465;57.664;39.686;2022-09-25T16:48:56;99416.59;;;13.58;59.76
63343;BME280;49465;57.664;39.686;2022-09-25T16:51:43;99415.19;;;13.44;60.49
63343;BME280;49465;57.664;39.686;2022-09-25T16:54:36;99409.78;;;13.36;60.72
63343;BME280;49465;57.664;39.686;2022-09-25T16:57:11;99409.34;;;13.21;61.41
63343;BME280;49465;57.664;39.686;2022-09-25T16:59:46;99410.56;;;12.98;61.28
63343;BME280;49465;57.664;39.686;2022-09-25T17:02:40;99408.34;;;13.13;61.19
63343;BME280;49465;57.664;39.686;2022-09-25T17:05:31;99400.31;;;13.14;61.00
63343;BME280;49465;57.664;39.686;2022-09-25T17:08:21;99404.06;;;13.12;61.06
63343;BME280;49465;57.664;39.686;2022-09-25T17:11:04;99402.78;;;12.96;61.32
63343;BME280;49465;57.664;39.686;2022-09-25T17:13:51;99402.34;;;12.91;61.57
63343;BME280;49465;57.664;39.686;2022-09-25T17:16:51;99410.50;;;12.78;62.07
63343;BME280;49465;57.664;39.686;2022-09-25T17:20:01;99412.56;;;12.75;62.30
63343;BME280;49465;57.664;39.686;2022-09-25T17:22:43;99415.03;;;12.66;62.87
63343;BME280;49465;57.664;39.686;2022-09-25T17:28:19;99419.19;;;12.69;62.85
63343;BME280;49465;57.664;39.686;2022-09-25T17:30:51;99415.56;;;12.60;63.39
63343;BME280;49465;57.664;39.686;2022-09-25T17:33:42;99411.31;;;12.79;62.18
63343;BME280;49465;57.664;39.686;2022-09-25T17:36:14;99406.44;;;12.64;63.00